Airfield :







YOU CAN JOIN US ON...

 
LOGIN :

Register | Disclaimer

   EN    FR    IT 

 









Legend :    VFR   Marginal VFR   IFR   Intensive IFR   Very Intensive IFR
Visi :
Ceiling :
>= 8 km
>= 3000ft
5 to 8 km
1000 to 3000 ft
1500m to 5 km
500 to 1000 ft
800 to 1500m
200 to 500 ft
< 800m
< 200 ft
Symbols :   Thunderstorms  Fog  Heavy snow  Heavy precipitations  Wind > 20 kt






- Airport Elevation : 1709 ft
- IATA code : YKL


CYKL - Schefferville

CURRENT METAR :
  • 080949Z AUTO 32014G22KT 5SM -SN OVC009 M12/M13 A2980 RMK SLP139

EXPIRED METARs :
  • 080900Z AUTO 33014G24KT 3SM -SN OVC009 M11/M12 A2980 RMK SLP137
  • 080820Z AUTO 34011G24KT 5SM -SN OVC009 M11/M12 A2978 RMK SLP132
  • 080800Z AUTO 33012G21KT 3SM -SN OVC009 M11/M12 A2978 RMK SLP128
  • 080700Z AUTO 33016G22KT 3SM -SN OVC009 M11/M12 A2978 RMK SLP130
  • 080655Z AUTO 33013G22KT 3SM -SN OVC009 M11/M12 A2979 RMK SLP133
  • 080600Z AUTO 33012G20KT 310V010 1 1/4SM -SN OVC007 M11/M12 A2977 RMK SLP124
  • 080538Z AUTO 34013G20KT 1 3/4SM -SN OVC007 M11/M12 A2976 RMK SLP124
  • 080525Z AUTO 34014G22KT 2 1/2SM -SN OVC007 M11/M12 A2976 RMK SLP124
  • 080500Z AUTO 33012G21KT 4SM -SN OVC007 M11/M12 A2976 RMK SLP120

TAF TAF CYKL
Valid from the 08 at 08:00 until the 08 at 20:00 UTC


080740Z 0808/0820 33015G25KT 2SM -SN BKN007 OVC015
TEMPO 0808/0814 6SM -SN OVC015
BECMG 0810/0812 34020G30KT
FM081400 34018G28KT P6SM BKN030
TEMPO 0814/0818 BKN020
FM081800 34015G30KT P6SM SCT040 RMK FCST BASED ON AUTO OBS. NXT FCST BY 081400Z
CZUL FIR / North America



MET'MAP, your aeronautical weather chart ! - Copyright ORBIFLY December 2007 - Disclaimer

ORBIFLY MET'MAP TEAM :

Programming & Development : Alexandra Zaïnal
Original concept : Baudouin d'Aumeries
Technical & hardware support : Manuel Goepfert
Assistance : Marc-Olivier Méhu




SOURCES & CREDITS :

   NOAA